createdAt,value
2023-05-18T00:01:31.181Z,12.30
2023-05-18T00:03:58.212Z,12.20
2023-05-18T00:06:27.902Z,12.10
2023-05-18T00:08:54.842Z,12.10
2023-05-18T00:11:22.225Z,12.00
2023-05-18T00:13:49.761Z,12.10
2023-05-18T00:16:16.931Z,12.00
2023-05-18T00:18:45.173Z,11.90
2023-05-18T00:21:12.362Z,11.90
2023-05-18T00:23:39.677Z,11.90
2023-05-18T00:26:06.667Z,11.90
2023-05-18T00:28:33.930Z,11.80
2023-05-18T00:31:00.937Z,11.90
2023-05-18T00:33:27.794Z,11.90
2023-05-18T00:35:56.711Z,11.80
2023-05-18T00:38:23.569Z,11.80
2023-05-18T00:40:51.194Z,11.80
2023-05-18T00:43:18.149Z,11.80
2023-05-18T00:45:45.136Z,11.80
2023-05-18T00:48:12.408Z,11.80
2023-05-18T00:50:40.169Z,11.80
2023-05-18T00:53:07.942Z,11.80
2023-05-18T00:55:34.848Z,11.80
2023-05-18T00:58:02.418Z,11.70
2023-05-18T01:00:29.636Z,11.80
2023-05-18T01:02:57.437Z,11.80
2023-05-18T01:05:24.573Z,11.70
2023-05-18T01:07:51.799Z,11.70
2023-05-18T01:10:20.205Z,11.70
2023-05-18T01:12:56.543Z,11.60
2023-05-18T01:15:35.599Z,11.60
2023-05-18T01:18:15.386Z,11.60
2023-05-18T01:21:33.875Z,11.60
2023-05-18T01:24:37.252Z,11.50
2023-05-18T01:27:08.534Z,11.50
2023-05-18T01:29:36.236Z,11.50
2023-05-18T01:32:08.156Z,11.40
2023-05-18T01:34:35.102Z,11.40
2023-05-18T01:37:02.056Z,11.30
2023-05-18T01:39:29.110Z,11.30
2023-05-18T01:42:03.824Z,11.30
2023-05-18T01:44:45.444Z,11.20
2023-05-18T01:47:17.569Z,11.20
2023-05-18T01:50:06.378Z,11.10
2023-05-18T01:52:41.649Z,11.10
2023-05-18T01:55:11.393Z,11.10
2023-05-18T01:57:42.733Z,11.10
2023-05-18T02:00:11.884Z,11.00
2023-05-18T02:02:39.310Z,11.00
2023-05-18T02:05:07.705Z,11.00
2023-05-18T02:07:34.734Z,11.00
2023-05-18T02:10:01.726Z,11.00
2023-05-18T02:12:28.669Z,11.00
2023-05-18T02:14:55.934Z,11.00
2023-05-18T02:17:26.113Z,11.00
2023-05-18T02:19:53.604Z,11.10
2023-05-18T02:22:20.490Z,11.00
2023-05-18T02:24:47.646Z,11.00
2023-05-18T02:27:15.425Z,11.00
2023-05-18T02:29:42.351Z,11.00
2023-05-18T02:32:09.727Z,11.10
2023-05-18T02:34:42.130Z,11.10
2023-05-18T02:37:09.221Z,11.10
2023-05-18T02:39:36.150Z,11.10
2023-05-18T02:42:03.037Z,11.10
2023-05-18T02:44:30.047Z,11.10
2023-05-18T02:46:57.152Z,11.20
2023-05-18T02:49:24.056Z,11.20
2023-05-18T02:51:50.927Z,11.20
2023-05-18T02:54:17.857Z,11.10
2023-05-18T02:56:44.762Z,11.20
2023-05-18T02:59:11.747Z,11.10
2023-05-18T03:01:40.033Z,11.20
2023-05-18T03:04:07.081Z,11.10
2023-05-18T03:06:35.991Z,11.10
2023-05-18T03:09:03.081Z,11.10
2023-05-18T03:11:29.986Z,11.10
2023-05-18T03:13:57.109Z,11.10
2023-05-18T03:16:28.389Z,11.00
2023-05-18T03:18:58.817Z,11.00
2023-05-18T03:21:25.965Z,10.90
2023-05-18T03:23:52.838Z,10.90
2023-05-18T03:26:19.717Z,10.90
2023-05-18T03:28:46.555Z,10.80
2023-05-18T03:31:13.575Z,10.80
2023-05-18T03:33:40.467Z,10.70
2023-05-18T03:36:07.934Z,10.70
2023-05-18T03:38:34.976Z,10.70
2023-05-18T03:41:01.866Z,10.60
2023-05-18T03:43:29.670Z,10.60
2023-05-18T03:45:56.635Z,10.60
2023-05-18T03:48:24.748Z,10.50
2023-05-18T03:50:51.694Z,10.50
2023-05-18T03:53:19.366Z,10.50
2023-05-18T03:55:46.580Z,10.50
2023-05-18T03:58:13.505Z,10.40
2023-05-18T04:00:40.731Z,10.40
2023-05-18T04:03:07.929Z,10.40
2023-05-18T04:05:34.860Z,10.40
2023-05-18T04:08:02.051Z,10.40
2023-05-18T04:10:28.964Z,10.40
2023-05-18T04:12:55.853Z,10.40
2023-05-18T04:15:22.766Z,10.50
2023-05-18T04:17:53.943Z,10.40
2023-05-18T04:20:21.256Z,10.50
2023-05-18T04:22:49.316Z,10.50
2023-05-18T04:25:16.715Z,10.50
2023-05-18T04:27:45.459Z,10.50
2023-05-18T04:30:13.884Z,10.50
2023-05-18T04:32:43.114Z,10.50
2023-05-18T04:35:12.105Z,10.50
2023-05-18T04:37:40.404Z,10.50
2023-05-18T04:40:13.942Z,10.50
2023-05-18T04:42:48.822Z,10.50
2023-05-18T04:45:19.300Z,10.60
2023-05-18T04:47:48.112Z,10.60
2023-05-18T04:50:16.811Z,10.60
2023-05-18T04:52:48.893Z,10.60
2023-05-18T04:55:27.992Z,10.70
2023-05-18T04:58:00.752Z,10.70
2023-05-18T05:00:29.891Z,10.90
2023-05-18T05:02:58.578Z,10.80
2023-05-18T05:05:27.127Z,10.90
2023-05-18T05:07:55.630Z,10.90
2023-05-18T05:10:22.758Z,10.90
2023-05-18T05:12:52.988Z,11.00
2023-05-18T05:15:20.806Z,11.00
2023-05-18T05:17:48.293Z,11.10
2023-05-18T05:20:16.168Z,11.20
2023-05-18T05:22:43.402Z,11.20
2023-05-18T05:25:10.854Z,11.30
2023-05-18T05:27:37.831Z,11.30
2023-05-18T05:30:06.078Z,11.40
2023-05-18T05:32:33.315Z,11.40
2023-05-18T05:35:00.342Z,11.50
2023-05-18T05:37:27.317Z,11.60
2023-05-18T05:39:54.381Z,11.70
2023-05-18T05:42:21.451Z,11.70
2023-05-18T05:44:48.377Z,11.80
2023-05-18T05:47:15.334Z,11.90
2023-05-18T05:49:42.267Z,12.00
2023-05-18T05:52:09.129Z,12.00
2023-05-18T05:54:40.777Z,12.10
2023-05-18T05:57:07.693Z,12.20
2023-05-18T05:59:34.573Z,12.20
2023-05-18T06:02:02.116Z,12.30
2023-05-18T06:04:29.147Z,12.40
2023-05-18T06:06:56.156Z,12.40
2023-05-18T06:09:23.092Z,12.50
2023-05-18T06:11:50.767Z,12.60
2023-05-18T06:14:17.672Z,12.60
2023-05-18T06:16:44.596Z,12.70
2023-05-18T06:19:11.545Z,12.80
2023-05-18T06:21:38.936Z,12.80
2023-05-18T06:24:06.626Z,12.90
2023-05-18T06:26:33.487Z,13.00
2023-05-18T06:29:00.389Z,13.10
2023-05-18T06:31:29.489Z,13.10
2023-05-18T06:33:57.153Z,13.20
2023-05-18T06:36:24.113Z,13.30
2023-05-18T06:38:52.305Z,13.40
2023-05-18T06:41:19.296Z,13.50
2023-05-18T06:43:46.342Z,13.50
2023-05-18T06:46:24.169Z,13.70
2023-05-18T06:48:51.507Z,13.80
2023-05-18T06:51:19.180Z,13.90
2023-05-18T06:53:46.539Z,14.00
2023-05-18T06:56:13.611Z,14.10
2023-05-18T06:58:42.617Z,14.20
2023-05-18T07:01:11.067Z,14.30
2023-05-18T07:03:38.087Z,14.40
2023-05-18T07:06:06.167Z,14.50
2023-05-18T07:08:33.574Z,14.60
2023-05-18T07:11:02.508Z,14.80
2023-05-18T07:13:30.068Z,14.90
2023-05-18T07:15:57.842Z,15.10
2023-05-18T07:18:25.039Z,15.20
2023-05-18T07:20:52.338Z,15.30
2023-05-18T07:23:19.245Z,15.40
2023-05-18T07:25:46.263Z,15.50
2023-05-18T07:28:13.204Z,15.60
2023-05-18T07:30:40.143Z,15.70
2023-05-18T07:33:07.066Z,15.80
2023-05-18T07:35:34.145Z,15.80
2023-05-18T07:38:01.104Z,15.90
2023-05-18T07:40:28.041Z,15.90
2023-05-18T07:42:55.094Z,15.90
2023-05-18T07:45:23.801Z,15.90
2023-05-18T07:47:50.923Z,15.90
2023-05-18T07:50:17.849Z,16.00
2023-05-18T07:52:44.743Z,16.00
2023-05-18T07:55:11.654Z,16.00
2023-05-18T07:57:39.839Z,16.00
2023-05-18T08:00:09.096Z,16.10
2023-05-18T08:02:36.355Z,16.10
2023-05-18T08:05:04.048Z,16.10
2023-05-18T08:07:32.964Z,16.10
2023-05-18T08:09:59.982Z,16.20
2023-05-18T08:12:26.993Z,16.20
2023-05-18T08:14:53.886Z,16.30
2023-05-18T08:17:21.177Z,16.40
2023-05-18T08:19:48.593Z,16.50
2023-05-18T08:22:15.832Z,16.50
2023-05-18T08:24:42.791Z,16.60
2023-05-18T08:27:11.293Z,16.70
2023-05-18T08:29:38.457Z,16.80
2023-05-18T08:32:08.760Z,17.00
2023-05-18T08:34:36.041Z,17.10
2023-05-18T08:37:03.084Z,17.20
2023-05-18T08:39:32.370Z,17.30
2023-05-18T08:42:16.538Z,17.50
2023-05-18T08:45:04.352Z,17.60
2023-05-18T08:47:33.101Z,17.70
2023-05-18T08:50:03.231Z,17.80
2023-05-18T08:52:36.622Z,18.00
2023-05-18T08:55:09.518Z,17.90
2023-05-18T08:57:42.814Z,17.90
2023-05-18T09:00:12.200Z,17.80
2023-05-18T09:02:40.433Z,17.80
2023-05-18T09:05:08.785Z,17.70
2023-05-18T09:07:38.493Z,17.60
2023-05-18T09:10:07.458Z,17.50
2023-05-18T09:12:36.360Z,17.50
2023-05-18T09:15:04.492Z,17.50
2023-05-18T09:17:31.723Z,17.80
2023-05-18T09:19:58.779Z,18.20
2023-05-18T09:22:26.298Z,18.70
2023-05-18T09:24:53.876Z,19.00
2023-05-18T09:27:22.431Z,19.20
2023-05-18T09:29:57.993Z,19.30
2023-05-18T09:32:26.164Z,19.20
2023-05-18T09:34:55.418Z,19.10
2023-05-18T09:37:22.864Z,18.90
2023-05-18T09:40:06.247Z,18.80
2023-05-18T09:42:42.398Z,18.60
2023-05-18T09:45:23.902Z,18.50
2023-05-18T09:47:51.484Z,18.30
2023-05-18T09:50:23.594Z,18.10
2023-05-18T09:52:51.284Z,18.00
2023-05-18T09:55:19.951Z,17.90
2023-05-18T09:57:49.868Z,17.70
2023-05-18T10:00:19.690Z,17.70
2023-05-18T10:02:52.185Z,17.60
2023-05-18T10:05:23.404Z,17.60
2023-05-18T10:07:55.254Z,17.60
2023-05-18T10:10:26.241Z,17.50
2023-05-18T10:12:55.717Z,17.50
2023-05-18T10:15:24.290Z,17.50
2023-05-18T10:17:57.252Z,17.50
2023-05-18T10:20:26.766Z,17.50
2023-05-18T10:22:58.863Z,17.60
2023-05-18T10:25:29.980Z,17.60
2023-05-18T10:28:01.213Z,17.70
2023-05-18T10:30:28.708Z,17.80
2023-05-18T10:32:58.304Z,17.80
2023-05-18T10:35:28.434Z,17.90
2023-05-18T10:38:00.619Z,17.90
2023-05-18T10:40:29.167Z,17.90
2023-05-18T10:42:58.823Z,17.90
2023-05-18T10:45:27.767Z,17.90
2023-05-18T10:47:57.267Z,17.80
2023-05-18T10:50:26.232Z,17.70
2023-05-18T10:52:54.584Z,17.60
2023-05-18T10:55:21.927Z,17.60
2023-05-18T10:58:12.216Z,17.50
2023-05-18T11:00:42.860Z,17.40
2023-05-18T11:03:13.689Z,17.30
2023-05-18T11:05:41.838Z,17.30
2023-05-18T11:08:09.561Z,17.30
2023-05-18T11:10:43.062Z,17.20
2023-05-18T11:13:13.816Z,17.20
2023-05-18T11:16:07.564Z,17.20
2023-05-18T11:18:39.158Z,17.20
2023-05-18T11:21:50.068Z,17.20
2023-05-18T11:24:33.095Z,17.30
2023-05-18T11:27:16.281Z,17.40
2023-05-18T11:29:49.640Z,17.40
2023-05-18T11:32:31.174Z,17.50
2023-05-18T11:34:59.513Z,17.60
2023-05-18T11:37:38.693Z,17.70
2023-05-18T11:40:11.465Z,17.80
2023-05-18T11:42:38.614Z,18.00
2023-05-18T11:45:13.333Z,18.10
2023-05-18T11:47:41.308Z,18.10
2023-05-18T11:50:14.682Z,18.20
2023-05-18T11:52:52.398Z,18.20
2023-05-18T11:55:21.002Z,18.30
2023-05-18T11:57:52.421Z,18.30
2023-05-18T12:00:21.130Z,18.40
2023-05-18T12:02:49.367Z,18.40
2023-05-18T12:05:17.277Z,18.50
2023-05-18T12:07:45.071Z,18.60
2023-05-18T12:10:17.189Z,18.70
2023-05-18T12:12:49.104Z,18.80
2023-05-18T12:15:17.408Z,19.00
2023-05-18T12:17:50.553Z,19.20
2023-05-18T12:20:20.665Z,19.30
2023-05-18T12:22:54.147Z,19.40
2023-05-18T12:25:23.826Z,19.40
2023-05-18T12:27:52.919Z,19.40
2023-05-18T12:30:26.053Z,19.40
2023-05-18T12:32:56.470Z,19.40
2023-05-18T12:35:25.146Z,19.30
2023-05-18T12:37:52.424Z,19.20
2023-05-18T12:40:20.512Z,19.20
2023-05-18T12:43:01.237Z,19.10
2023-05-18T12:45:32.433Z,19.10
2023-05-18T12:48:07.087Z,19.20
2023-05-18T12:50:35.069Z,19.10
2023-05-18T12:53:02.044Z,18.90
2023-05-18T12:55:32.377Z,18.80
2023-05-18T12:58:03.561Z,18.80
2023-05-18T13:00:37.832Z,18.80
2023-05-18T13:03:16.876Z,18.70
2023-05-18T13:05:46.058Z,18.60
2023-05-18T13:08:21.775Z,18.50
2023-05-18T13:10:58.108Z,18.50
2023-05-18T13:13:33.276Z,18.50
2023-05-18T13:16:00.595Z,18.40
2023-05-18T13:18:28.453Z,18.30
2023-05-18T13:20:58.711Z,18.30
2023-05-18T13:23:31.032Z,18.20
2023-05-18T13:25:58.957Z,18.20
2023-05-18T13:28:27.281Z,18.20
2023-05-18T13:30:54.774Z,18.20
2023-05-18T13:33:21.804Z,18.20
2023-05-18T13:35:49.846Z,18.20
2023-05-18T13:38:17.042Z,18.20
2023-05-18T13:40:45.698Z,18.20
2023-05-18T13:43:14.001Z,18.10
2023-05-18T13:45:41.948Z,18.20
2023-05-18T13:48:10.733Z,18.20
2023-05-18T13:50:39.361Z,18.20
2023-05-18T13:53:06.928Z,18.20
2023-05-18T13:55:35.034Z,18.30
2023-05-18T13:58:01.888Z,18.30
2023-05-18T14:00:28.895Z,18.40
2023-05-18T14:02:56.524Z,18.40
2023-05-18T14:05:23.801Z,18.30
2023-05-18T14:07:52.483Z,18.30
2023-05-18T14:10:20.312Z,18.20
2023-05-18T14:12:47.610Z,18.10
2023-05-18T14:15:15.231Z,18.10
2023-05-18T14:17:45.928Z,18.00
2023-05-18T14:20:13.033Z,18.00
2023-05-18T14:22:40.923Z,18.00
2023-05-18T14:25:08.426Z,18.00
2023-05-18T14:27:35.468Z,17.90
2023-05-18T14:30:02.413Z,17.80
2023-05-18T14:32:29.430Z,17.80
2023-05-18T14:34:58.252Z,17.70
2023-05-18T14:37:25.783Z,17.60
2023-05-18T14:39:53.991Z,17.60
2023-05-18T14:42:21.070Z,17.50
2023-05-18T14:44:47.961Z,17.50
2023-05-18T14:47:14.960Z,17.50
2023-05-18T14:49:41.938Z,17.50
2023-05-18T14:52:08.808Z,17.50
2023-05-18T14:54:36.636Z,17.50
2023-05-18T14:57:03.927Z,17.50
2023-05-18T14:59:30.891Z,17.50
2023-05-18T15:01:57.813Z,17.50
2023-05-18T15:04:25.698Z,17.50
2023-05-18T15:06:53.056Z,17.50
2023-05-18T15:09:19.912Z,17.40
2023-05-18T15:11:46.960Z,17.40
2023-05-18T15:14:13.790Z,17.40
2023-05-18T15:16:40.962Z,17.40
2023-05-18T15:19:07.980Z,17.30
2023-05-18T15:21:34.844Z,17.30
2023-05-18T15:24:01.704Z,17.30
2023-05-18T15:26:28.642Z,17.20
2023-05-18T15:28:56.394Z,17.20
2023-05-18T15:31:23.415Z,17.10
2023-05-18T15:33:50.737Z,17.00
2023-05-18T15:36:17.692Z,17.00
2023-05-18T15:38:44.927Z,17.00
2023-05-18T15:41:11.837Z,17.00
2023-05-18T15:43:39.310Z,16.90
2023-05-18T15:46:06.403Z,16.90
2023-05-18T15:48:33.552Z,16.90
2023-05-18T15:51:00.472Z,16.90
2023-05-18T15:53:27.412Z,16.90
2023-05-18T15:55:58.720Z,16.80
2023-05-18T15:58:26.708Z,16.80
2023-05-18T16:00:53.923Z,16.80
2023-05-18T16:03:21.286Z,16.70
2023-05-18T16:05:48.508Z,16.70
2023-05-18T16:08:15.485Z,16.70
2023-05-18T16:10:42.374Z,16.60
2023-05-18T16:13:09.277Z,16.60
2023-05-18T16:15:36.284Z,16.60
2023-05-18T16:18:03.964Z,16.60
2023-05-18T16:20:31.383Z,16.60
2023-05-18T16:22:59.273Z,16.60
2023-05-18T16:25:26.648Z,16.60
2023-05-18T16:27:53.654Z,16.60
2023-05-18T16:30:20.739Z,16.60
2023-05-18T16:32:47.682Z,16.60
2023-05-18T16:35:14.694Z,16.60
2023-05-18T16:37:41.667Z,16.50
2023-05-18T16:40:09.326Z,16.50
2023-05-18T16:42:36.423Z,16.50
2023-05-18T16:45:03.892Z,16.50
2023-05-18T16:47:32.527Z,16.40
2023-05-18T16:50:00.416Z,16.40
2023-05-18T16:52:27.709Z,16.40
2023-05-18T16:54:54.635Z,16.30
2023-05-18T16:57:22.126Z,16.20
2023-05-18T16:59:49.426Z,16.20
2023-05-18T17:02:17.776Z,16.20
2023-05-18T17:04:49.577Z,16.20
2023-05-18T17:07:16.921Z,16.20
2023-05-18T17:09:44.391Z,16.20
2023-05-18T17:12:12.292Z,16.10
2023-05-18T17:14:39.744Z,16.10
2023-05-18T17:17:07.883Z,16.10
2023-05-18T17:19:35.537Z,16.20
2023-05-18T17:22:04.766Z,16.10
2023-05-18T17:24:31.944Z,16.20
2023-05-18T17:26:59.021Z,16.20
2023-05-18T17:29:27.113Z,16.20
2023-05-18T17:31:54.585Z,16.10
2023-05-18T17:34:22.695Z,16.10
2023-05-18T17:36:49.944Z,16.10
2023-05-18T17:39:16.924Z,16.10
2023-05-18T17:41:44.564Z,16.00
2023-05-18T17:44:13.916Z,16.00
2023-05-18T17:46:41.771Z,16.00
2023-05-18T17:49:09.071Z,16.00
2023-05-18T17:51:36.190Z,16.00
2023-05-18T17:54:03.611Z,15.90
2023-05-18T17:56:31.638Z,15.90
2023-05-18T17:58:59.239Z,15.90
2023-05-18T18:01:29.988Z,15.80
2023-05-18T18:03:58.232Z,15.80
2023-05-18T18:06:26.319Z,15.80
2023-05-18T18:08:58.436Z,15.70
2023-05-18T18:11:28.429Z,15.70
2023-05-18T18:13:55.412Z,15.70
2023-05-18T18:16:22.659Z,15.70
2023-05-18T18:18:50.598Z,15.70
2023-05-18T18:21:17.737Z,15.70
2023-05-18T18:23:44.998Z,15.70
2023-05-18T18:26:12.137Z,15.60
2023-05-18T18:28:39.102Z,15.60
2023-05-18T18:31:06.157Z,15.60
2023-05-18T18:33:33.451Z,15.50
2023-05-18T18:36:00.636Z,15.50
2023-05-18T18:38:28.761Z,15.50
2023-05-18T18:41:01.734Z,15.40
2023-05-18T18:43:29.216Z,15.50
2023-05-18T18:45:57.150Z,15.40
2023-05-18T18:48:25.416Z,15.40
2023-05-18T18:50:53.593Z,15.30
2023-05-18T18:53:20.628Z,15.30
2023-05-18T18:55:47.652Z,15.30
2023-05-18T18:58:15.084Z,15.40
2023-05-18T19:00:42.324Z,15.30
2023-05-18T19:03:14.537Z,15.30
2023-05-18T19:05:41.718Z,15.30
2023-05-18T19:08:08.659Z,15.20
2023-05-18T19:10:36.018Z,15.20
2023-05-18T19:13:06.148Z,15.20
2023-05-18T19:15:34.320Z,15.20
2023-05-18T19:18:01.822Z,15.10
2023-05-18T19:20:28.874Z,15.10
2023-05-18T19:22:55.913Z,15.10
2023-05-18T19:25:26.560Z,15.00
2023-05-18T19:27:53.974Z,15.00
2023-05-18T19:30:22.531Z,15.00
2023-05-18T19:32:52.017Z,15.00
2023-05-18T19:35:20.907Z,15.00
2023-05-18T19:37:48.089Z,15.00
2023-05-18T19:40:16.212Z,14.90
2023-05-18T19:42:43.376Z,14.90
2023-05-18T19:45:10.587Z,14.90
2023-05-18T19:47:37.560Z,14.90
2023-05-18T19:50:04.871Z,14.90
2023-05-18T19:52:33.516Z,14.80
2023-05-18T19:55:01.883Z,14.80
2023-05-18T19:57:28.838Z,14.80
2023-05-18T19:59:55.675Z,14.80
2023-05-18T20:02:22.585Z,14.80
2023-05-18T20:04:50.675Z,14.80
2023-05-18T20:07:18.115Z,14.80
2023-05-18T20:09:45.064Z,14.80
2023-05-18T20:12:12.130Z,14.80
2023-05-18T20:14:39.262Z,14.80
2023-05-18T20:17:06.802Z,14.80
2023-05-18T20:19:33.735Z,14.70
2023-05-18T20:22:00.721Z,14.70
2023-05-18T20:24:27.751Z,14.70
2023-05-18T20:26:54.651Z,14.60
2023-05-18T20:29:21.606Z,14.60
2023-05-18T20:31:48.678Z,14.50
2023-05-18T20:34:15.614Z,14.50
2023-05-18T20:36:42.574Z,14.50
2023-05-18T20:39:09.459Z,14.50
2023-05-18T20:41:40.026Z,14.40
2023-05-18T20:44:07.377Z,14.40
2023-05-18T20:46:34.460Z,14.40
2023-05-18T20:49:01.402Z,14.30
2023-05-18T20:51:28.419Z,14.30
2023-05-18T20:53:55.365Z,14.30
2023-05-18T20:56:23.702Z,14.30
2023-05-18T20:58:50.581Z,14.20
2023-05-18T21:01:18.548Z,14.20
2023-05-18T21:03:45.922Z,14.20
2023-05-18T21:06:14.061Z,14.10
2023-05-18T21:08:41.319Z,14.10
2023-05-18T21:11:08.265Z,14.10
2023-05-18T21:13:36.863Z,14.10
2023-05-18T21:16:06.725Z,14.00
2023-05-18T21:18:34.756Z,14.00
2023-05-18T21:21:02.858Z,14.00
2023-05-18T21:23:30.366Z,14.00
2023-05-18T21:25:58.080Z,14.00
2023-05-18T21:28:25.147Z,14.00
2023-05-18T21:30:52.939Z,13.90
2023-05-18T21:33:21.490Z,13.90
2023-05-18T21:35:48.670Z,14.00
2023-05-18T21:38:16.730Z,13.90
2023-05-18T21:40:44.251Z,13.90
2023-05-18T21:43:12.509Z,13.90
2023-05-18T21:45:39.922Z,14.00
2023-05-18T21:48:07.595Z,13.90
2023-05-18T21:50:35.466Z,13.80
2023-05-18T21:53:03.617Z,13.80
2023-05-18T21:55:33.819Z,13.80
2023-05-18T21:58:00.931Z,13.80
2023-05-18T22:00:28.527Z,13.80
2023-05-18T22:02:55.687Z,13.80
2023-05-18T22:05:22.631Z,13.80
2023-05-18T22:07:49.857Z,13.80
2023-05-18T22:10:18.358Z,13.80
2023-05-18T22:12:45.498Z,13.80
2023-05-18T22:15:12.774Z,13.70
2023-05-18T22:17:40.267Z,13.70
2023-05-18T22:20:11.498Z,13.70
2023-05-18T22:22:40.609Z,13.80
2023-05-18T22:25:08.358Z,13.70
2023-05-18T22:27:36.724Z,13.70
2023-05-18T22:30:06.358Z,13.70
2023-05-18T22:32:33.405Z,13.60
2023-05-18T22:35:02.147Z,13.60
2023-05-18T22:37:29.138Z,13.60
2023-05-18T22:39:56.166Z,13.60
2023-05-18T22:42:23.106Z,13.50
2023-05-18T22:44:50.030Z,13.50
2023-05-18T22:47:20.057Z,13.50
2023-05-18T22:49:47.842Z,13.50
2023-05-18T22:52:16.463Z,13.50
2023-05-18T22:54:43.456Z,13.40
2023-05-18T22:57:10.496Z,13.40
2023-05-18T22:59:37.682Z,13.40
2023-05-18T23:02:05.742Z,13.40
2023-05-18T23:04:35.116Z,13.40
2023-05-18T23:07:03.949Z,13.40
2023-05-18T23:09:31.064Z,13.30
2023-05-18T23:11:59.660Z,13.30
2023-05-18T23:14:32.474Z,13.30
2023-05-18T23:17:00.548Z,13.30
2023-05-18T23:19:27.672Z,13.30
2023-05-18T23:21:54.997Z,13.30
2023-05-18T23:24:22.120Z,13.30
2023-05-18T23:26:49.067Z,13.30
2023-05-18T23:29:15.943Z,13.30
2023-05-18T23:31:42.929Z,13.30
2023-05-18T23:34:10.469Z,13.30
2023-05-18T23:36:42.638Z,13.30
2023-05-18T23:39:10.254Z,13.30
2023-05-18T23:41:38.130Z,13.30
2023-05-18T23:44:06.564Z,13.20
2023-05-18T23:46:34.556Z,13.30
2023-05-18T23:49:02.091Z,13.30
2023-05-18T23:51:32.931Z,13.30
2023-05-18T23:54:00.757Z,13.30
2023-05-18T23:56:28.617Z,13.30
2023-05-18T23:58:55.926Z,13.30
